createdAt,value
2022-08-28T00:03:38.194Z,100433.58
2022-08-28T00:09:01.167Z,100426.32
2022-08-28T00:14:25.291Z,100425.80
2022-08-28T00:19:48.711Z,100437.44
2022-08-28T00:25:12.661Z,100448.19
2022-08-28T00:30:49.786Z,100443.66
2022-08-28T00:36:13.734Z,100449.78
2022-08-28T00:41:37.134Z,100448.24
2022-08-28T00:47:05.176Z,100450.28
2022-08-28T00:52:29.064Z,100448.06
2022-08-28T00:58:07.354Z,100450.26
2022-08-28T01:03:29.646Z,100447.55
2022-08-28T01:08:54.665Z,100455.69
2022-08-28T01:14:22.600Z,100442.44
2022-08-28T01:19:54.683Z,100447.50
2022-08-28T01:25:24.788Z,100452.09
2022-08-28T01:36:58.537Z,100449.48
2022-08-28T01:42:22.571Z,100446.03
2022-08-28T01:47:45.427Z,100450.81
2022-08-28T01:53:07.845Z,100445.02
2022-08-28T01:58:37.429Z,100439.92
2022-08-28T02:03:56.825Z,100438.53
2022-08-28T02:09:20.261Z,100445.32
2022-08-28T02:14:42.501Z,100432.20
2022-08-28T02:20:04.936Z,100425.62
2022-08-28T02:25:28.315Z,100421.03
2022-08-28T02:30:51.111Z,100417.77
2022-08-28T02:36:14.332Z,100412.98
2022-08-28T02:41:36.582Z,100415.16
2022-08-28T02:46:58.895Z,100414.95
2022-08-28T02:52:22.668Z,100411.88
2022-08-28T02:57:45.772Z,100405.42
2022-08-28T03:03:08.502Z,100401.05
2022-08-28T03:08:32.605Z,100397.03
2022-08-28T03:13:56.084Z,100397.08
2022-08-28T03:19:18.272Z,100387.00
2022-08-28T03:24:41.621Z,100380.33
2022-08-28T03:30:03.833Z,100381.89
2022-08-28T03:35:27.110Z,100373.04
2022-08-28T03:40:53.007Z,100387.05
2022-08-28T03:46:23.867Z,100383.98
2022-08-28T03:51:48.592Z,100379.03
2022-08-28T03:57:11.406Z,100384.12
2022-08-28T04:02:34.242Z,100389.89
2022-08-28T04:07:56.613Z,100384.70
2022-08-28T04:13:19.833Z,100379.83
2022-08-28T04:18:43.396Z,100390.81
2022-08-28T04:24:09.697Z,100395.52
2022-08-28T04:29:32.169Z,100398.91
2022-08-28T04:34:56.215Z,100401.80
2022-08-28T04:40:20.048Z,100404.34
2022-08-28T04:45:46.021Z,100412.30
2022-08-28T04:51:10.508Z,100406.03
2022-08-28T04:56:33.735Z,100415.91
2022-08-28T05:01:56.149Z,100421.84
2022-08-28T05:07:18.408Z,100415.61
2022-08-28T05:12:44.089Z,100419.43
2022-08-28T05:18:06.263Z,100414.60
2022-08-28T05:23:29.401Z,100428.55
2022-08-28T05:28:53.284Z,100423.94
2022-08-28T05:34:16.548Z,100438.33
2022-08-28T05:39:38.773Z,100436.69
2022-08-28T05:45:01.731Z,100447.34
2022-08-28T05:50:25.419Z,100442.41
2022-08-28T05:55:51.648Z,100438.80
2022-08-28T06:01:19.815Z,100442.88
2022-08-28T06:06:44.301Z,100444.27
2022-08-28T06:12:07.992Z,100445.48
2022-08-28T06:17:31.457Z,100448.45
2022-08-28T06:22:55.363Z,100446.19
2022-08-28T06:28:18.489Z,100451.16
2022-08-28T06:33:42.701Z,100445.92
2022-08-28T06:39:05.453Z,100444.34
2022-08-28T06:44:33.578Z,100440.41
2022-08-28T06:49:56.606Z,100446.00
2022-08-28T06:55:19.127Z,100456.80
2022-08-28T07:00:42.533Z,100470.89
2022-08-28T07:06:07.357Z,100471.45
2022-08-28T07:11:37.357Z,100463.94
2022-08-28T07:17:01.262Z,100463.16
2022-08-28T07:22:23.477Z,100458.47
2022-08-28T07:27:45.706Z,100454.66
2022-08-28T07:33:07.912Z,100450.59
2022-08-28T07:38:30.615Z,100448.74
2022-08-28T07:44:10.783Z,100454.27
2022-08-28T07:49:37.085Z,100453.44
2022-08-28T07:54:59.445Z,100452.42
2022-08-28T08:00:23.082Z,100460.02
2022-08-28T08:05:45.347Z,100454.28
2022-08-28T08:11:21.113Z,100460.20
2022-08-28T08:16:47.956Z,100453.36
2022-08-28T08:22:10.136Z,100447.91
2022-08-28T08:27:33.516Z,100437.80
2022-08-28T08:32:56.955Z,100451.50
2022-08-28T08:38:21.190Z,100458.83
2022-08-28T08:43:47.456Z,100455.70
2022-08-28T08:49:12.660Z,100463.55
2022-08-28T08:54:36.492Z,100460.31
2022-08-28T08:59:59.356Z,100454.96
2022-08-28T09:05:30.108Z,100451.00
2022-08-28T09:11:01.059Z,100460.63
2022-08-28T09:16:31.823Z,100464.09
2022-08-28T09:21:57.587Z,100462.44
2022-08-28T09:27:30.773Z,100467.75
2022-08-28T09:33:05.347Z,100458.28
2022-08-28T09:38:44.677Z,100471.74
2022-08-28T09:44:06.927Z,100475.03
2022-08-28T09:49:43.139Z,100468.57
2022-08-28T09:55:07.860Z,100463.34
2022-08-28T10:00:31.120Z,100456.84
2022-08-28T10:06:06.747Z,100461.60
2022-08-28T10:11:42.595Z,100459.66
2022-08-28T10:17:12.418Z,100459.77
2022-08-28T10:22:47.773Z,100454.67
2022-08-28T10:28:37.124Z,100451.05
2022-08-28T10:34:47.307Z,100456.64
2022-08-28T10:40:25.547Z,100448.03
2022-08-28T10:45:52.214Z,100461.28
2022-08-28T10:51:35.460Z,100454.22
2022-08-28T10:57:00.132Z,100453.06
2022-08-28T11:02:26.612Z,100447.45
2022-08-28T11:07:55.856Z,100438.79
2022-08-28T11:13:19.823Z,100431.87
2022-08-28T11:18:51.055Z,100435.96
2022-08-28T11:30:36.662Z,100436.25
2022-08-28T11:36:04.020Z,100433.92
2022-08-28T11:42:06.381Z,100437.55
2022-08-28T11:47:55.913Z,100436.30
2022-08-28T11:53:20.927Z,100448.25
2022-08-28T11:58:50.898Z,100447.33
2022-08-28T12:04:17.813Z,100442.80
2022-08-28T12:10:05.123Z,100444.41
2022-08-28T12:15:43.300Z,100430.91
2022-08-28T12:21:13.930Z,100431.98
2022-08-28T12:26:41.680Z,100429.72
2022-08-28T12:32:25.199Z,100430.90
2022-08-28T12:38:03.720Z,100421.08
2022-08-28T12:43:34.682Z,100425.95
2022-08-28T12:49:16.741Z,100429.77
2022-08-28T12:54:40.094Z,100417.53
2022-08-28T13:00:07.861Z,100417.62
2022-08-28T13:05:40.301Z,100428.65
2022-08-28T13:11:14.219Z,100418.25
2022-08-28T13:16:55.479Z,100418.16
2022-08-28T13:22:40.614Z,100425.62
2022-08-28T13:28:20.200Z,100422.23
2022-08-28T13:33:44.244Z,100413.58
2022-08-28T13:39:06.973Z,100418.76
2022-08-28T13:44:42.692Z,100415.72
2022-08-28T13:50:06.384Z,100413.53
2022-08-28T13:55:38.756Z,100417.23
2022-08-28T14:01:03.547Z,100414.06
2022-08-28T14:06:31.823Z,100417.39
2022-08-28T14:11:56.525Z,100406.52
2022-08-28T14:17:21.960Z,100414.68
2022-08-28T14:22:44.242Z,100420.41
2022-08-28T14:28:06.425Z,100421.92
2022-08-28T14:33:29.258Z,100419.84
2022-08-28T14:38:54.711Z,100419.16
2022-08-28T14:44:17.824Z,100417.05
2022-08-28T14:49:41.096Z,100420.51
2022-08-28T14:55:03.610Z,100430.35
2022-08-28T15:00:26.888Z,100420.98
2022-08-28T15:05:49.741Z,100410.78
2022-08-28T15:16:52.727Z,100428.76
2022-08-28T15:22:15.153Z,100440.79
2022-08-28T15:27:39.855Z,100438.78
2022-08-28T15:33:02.772Z,100457.87
2022-08-28T15:38:25.550Z,100455.44
2022-08-28T15:43:48.023Z,100483.13
2022-08-28T15:49:12.798Z,100500.66
2022-08-28T15:54:37.209Z,100500.30
2022-08-28T16:00:00.354Z,100499.65
2022-08-28T16:05:26.941Z,100510.00
2022-08-28T16:10:50.139Z,100521.17
2022-08-28T16:16:12.601Z,100515.19
2022-08-28T16:21:35.249Z,100501.09
2022-08-28T16:26:57.944Z,100502.01
2022-08-28T16:32:20.373Z,100518.13
2022-08-28T16:37:42.878Z,100519.26
2022-08-28T16:43:07.441Z,100532.00
2022-08-28T16:48:31.094Z,100510.02
2022-08-28T16:53:53.922Z,100508.56
2022-08-28T16:59:23.233Z,100506.44
2022-08-28T17:04:44.910Z,100516.81
2022-08-28T17:10:09.361Z,100505.00
2022-08-28T17:15:31.767Z,100515.79
2022-08-28T17:21:12.007Z,100531.00
2022-08-28T17:26:35.221Z,100534.80
2022-08-28T17:31:57.612Z,100538.77
2022-08-28T17:37:21.194Z,100535.80
2022-08-28T17:42:44.957Z,100540.91
2022-08-28T17:48:07.891Z,100537.88
2022-08-28T17:53:30.852Z,100572.58
2022-08-28T17:58:53.147Z,100582.89
2022-08-28T18:04:21.467Z,100600.41
2022-08-28T18:09:40.919Z,100599.98
2022-08-28T18:15:04.333Z,100596.99
2022-08-28T18:20:28.162Z,100599.37
2022-08-28T18:25:51.813Z,100575.45
2022-08-28T18:31:14.388Z,100603.85
2022-08-28T18:36:39.736Z,100614.14
2022-08-28T18:42:01.964Z,100623.34
2022-08-28T18:47:24.311Z,100653.93
2022-08-28T18:52:46.844Z,100659.38
2022-08-28T18:58:15.161Z,100676.88
2022-08-28T19:03:35.299Z,100691.34
2022-08-28T19:08:57.574Z,100696.25
2022-08-28T19:14:20.449Z,100702.63
2022-08-28T19:19:45.892Z,100698.72
2022-08-28T19:25:17.203Z,100703.33
2022-08-28T19:30:38.871Z,100703.05
2022-08-28T19:36:01.776Z,100725.67
2022-08-28T19:41:26.781Z,100736.42
2022-08-28T19:46:50.566Z,100740.55
2022-08-28T19:52:13.453Z,100746.68
2022-08-28T19:57:35.766Z,100750.41
2022-08-28T20:02:58.533Z,100745.67
2022-08-28T20:08:21.601Z,100761.30
2022-08-28T20:13:44.767Z,100766.59
2022-08-28T20:19:08.249Z,100770.31
2022-08-28T20:24:33.895Z,100770.98
2022-08-28T20:29:56.940Z,100780.98
2022-08-28T20:35:22.174Z,100772.97
2022-08-28T20:40:44.817Z,100789.95
2022-08-28T20:46:08.871Z,100794.70
2022-08-28T20:51:48.911Z,100780.09
2022-08-28T20:57:14.178Z,100781.21
2022-08-28T21:02:39.839Z,100778.28
2022-08-28T21:08:02.110Z,100771.45
2022-08-28T21:13:25.558Z,100772.13
2022-08-28T21:19:13.981Z,100778.72
2022-08-28T21:24:15.015Z,100793.33
2022-08-28T21:29:39.251Z,100799.78
2022-08-28T21:35:02.561Z,100806.08
2022-08-28T21:40:26.702Z,100810.83
2022-08-28T21:45:49.103Z,100814.40
2022-08-28T21:51:15.765Z,100831.14
2022-08-28T21:56:40.090Z,100827.52
2022-08-28T22:02:02.784Z,100831.56
2022-08-28T22:07:26.023Z,100833.27
2022-08-28T22:12:48.256Z,100840.41
2022-08-28T22:18:10.916Z,100842.60
2022-08-28T22:23:35.615Z,100834.78
2022-08-28T22:28:58.004Z,100839.53
2022-08-28T22:34:21.345Z,100837.11
2022-08-28T22:39:44.321Z,100834.89
2022-08-28T22:45:06.724Z,100835.36
2022-08-28T22:50:30.134Z,100824.66
2022-08-28T22:55:52.984Z,100820.39
2022-08-28T23:01:20.023Z,100822.27
2022-08-28T23:06:43.073Z,100823.97
2022-08-28T23:12:05.329Z,100828.55
2022-08-28T23:17:27.523Z,100824.13
2022-08-28T23:22:56.414Z,100817.29
2022-08-28T23:28:16.799Z,100806.25
2022-08-28T23:33:39.429Z,100810.54
2022-08-28T23:39:02.108Z,100811.50
2022-08-28T23:44:25.717Z,100812.68
2022-08-28T23:49:49.286Z,100799.72
2022-08-28T23:55:12.882Z,100805.26
